Minturn, Arkansas
Current Conditions -  °F | °C
As of 5:15 PM on Saturday 25 Oct 2014 (Local Time) from KARG Reporting Station
Clear Clear  
Wind Chill: 82°   Ceiling: Unl
Heat Index: 83°   Visibility: 10mi
Dew Point: 63°   Wind: 5mph
Humidity: 51%   Direction: 230°SW
Pressure: 29.99"   Gusts: NA
Location:  35.97°N, 91.03°W
Report Text: KARG 252215Z AUTO 23004KT 10SM CLR 28/17 A2999 RMK AO1
Loading
Personal Weather Stations






























Interactive Weather Map New forecast layout! Learn more

10-Day Weather Forecast

Advertisements
Track Severe Weather on mobile